sensor_id;sensor_type;location;lat;lon;timestamp;pressure;altitude;pressure_sealevel;temperature;humidity
21988;BME280;11158;53.404;-1.510;2023-07-24T00:01:00;99504.19;;;14.74;72.93
21988;BME280;11158;53.404;-1.510;2023-07-24T00:03:45;99486.97;;;13.97;75.38
21988;BME280;11158;53.404;-1.510;2023-07-24T00:06:29;99506.16;;;13.82;75.31
21988;BME280;11158;53.404;-1.510;2023-07-24T00:09:13;99495.16;;;14.68;73.61
21988;BME280;11158;53.404;-1.510;2023-07-24T00:11:57;99502.44;;;13.83;75.57
21988;BME280;11158;53.404;-1.510;2023-07-24T00:14:42;99499.97;;;14.24;73.63
21988;BME280;11158;53.404;-1.510;2023-07-24T00:17:26;99501.59;;;13.83;75.10
21988;BME280;11158;53.404;-1.510;2023-07-24T00:20:10;99509.81;;;14.30;74.32
21988;BME280;11158;53.404;-1.510;2023-07-24T00:22:54;99500.91;;;13.57;75.43
21988;BME280;11158;53.404;-1.510;2023-07-24T00:25:38;99498.34;;;14.23;74.39
21988;BME280;11158;53.404;-1.510;2023-07-24T00:28:22;99501.25;;;14.10;73.78
21988;BME280;11158;53.404;-1.510;2023-07-24T00:31:06;99493.72;;;13.70;74.26
21988;BME280;11158;53.404;-1.510;2023-07-24T00:33:50;99497.94;;;14.50;72.94
21988;BME280;11158;53.404;-1.510;2023-07-24T00:36:36;99496.28;;;14.37;73.22
21988;BME280;11158;53.404;-1.510;2023-07-24T00:39:20;99500.34;;;13.67;75.50
21988;BME280;11158;53.404;-1.510;2023-07-24T00:42:05;99496.44;;;14.65;72.02
21988;BME280;11158;53.404;-1.510;2023-07-24T00:44:49;99505.00;;;14.62;72.01
21988;BME280;11158;53.404;-1.510;2023-07-24T00:47:33;99502.47;;;14.37;72.66
21988;BME280;11158;53.404;-1.510;2023-07-24T00:50:17;99501.72;;;14.60;72.17
21988;BME280;11158;53.404;-1.510;2023-07-24T00:53:02;99501.47;;;14.20;72.19
21988;BME280;11158;53.404;-1.510;2023-07-24T00:55:47;99495.91;;;13.61;74.54
21988;BME280;11158;53.404;-1.510;2023-07-24T00:58:31;99494.25;;;14.20;73.74
21988;BME280;11158;53.404;-1.510;2023-07-24T01:01:19;99504.22;;;14.01;73.52
21988;BME280;11158;53.404;-1.510;2023-07-24T01:04:05;99498.03;;;14.43;72.32
21988;BME280;11158;53.404;-1.510;2023-07-24T01:06:50;99496.94;;;14.62;71.35
21988;BME280;11158;53.404;-1.510;2023-07-24T01:09:34;99508.06;;;14.36;73.18
21988;BME280;11158;53.404;-1.510;2023-07-24T01:12:31;99499.09;;;14.00;73.86
21988;BME280;11158;53.404;-1.510;2023-07-24T01:18:14;99504.47;;;14.54;72.39
21988;BME280;11158;53.404;-1.510;2023-07-24T01:21:00;99515.19;;;13.70;75.69
21988;BME280;11158;53.404;-1.510;2023-07-24T01:23:58;99505.97;;;13.96;74.12
21988;BME280;11158;53.404;-1.510;2023-07-24T01:26:47;99503.22;;;13.54;75.48
21988;BME280;11158;53.404;-1.510;2023-07-24T01:29:31;99503.25;;;14.26;73.57
21988;BME280;11158;53.404;-1.510;2023-07-24T01:32:15;99516.38;;;13.74;74.68
21988;BME280;11158;53.404;-1.510;2023-07-24T01:34:59;99504.31;;;14.67;72.38
21988;BME280;11158;53.404;-1.510;2023-07-24T01:37:46;99516.50;;;13.97;73.26
21988;BME280;11158;53.404;-1.510;2023-07-24T01:40:31;99510.84;;;14.71;71.50
21988;BME280;11158;53.404;-1.510;2023-07-24T01:43:16;99503.81;;;14.04;73.64
21988;BME280;11158;53.404;-1.510;2023-07-24T01:46:00;99503.81;;;14.82;70.82
21988;BME280;11158;53.404;-1.510;2023-07-24T01:48:44;99501.97;;;13.87;74.21
21988;BME280;11158;53.404;-1.510;2023-07-24T01:51:30;99506.09;;;13.71;75.50
21988;BME280;11158;53.404;-1.510;2023-07-24T01:54:14;99512.00;;;14.10;73.19
21988;BME280;11158;53.404;-1.510;2023-07-24T01:56:58;99503.16;;;14.98;71.25
21988;BME280;11158;53.404;-1.510;2023-07-24T01:59:42;99496.44;;;15.24;69.57
21988;BME280;11158;53.404;-1.510;2023-07-24T02:02:29;99499.16;;;14.89;71.32
21988;BME280;11158;53.404;-1.510;2023-07-24T02:05:13;99511.56;;;15.02;70.99
21988;BME280;11158;53.404;-1.510;2023-07-24T02:07:57;99505.63;;;14.34;71.56
21988;BME280;11158;53.404;-1.510;2023-07-24T02:10:41;99505.00;;;14.98;71.09
21988;BME280;11158;53.404;-1.510;2023-07-24T02:13:26;99507.56;;;14.57;72.45
21988;BME280;11158;53.404;-1.510;2023-07-24T02:16:10;99511.91;;;14.94;71.54
21988;BME280;11158;53.404;-1.510;2023-07-24T02:18:55;99504.22;;;14.32;72.67
21988;BME280;11158;53.404;-1.510;2023-07-24T02:21:39;99502.66;;;15.01;70.55
21988;BME280;11158;53.404;-1.510;2023-07-24T02:24:24;99495.72;;;14.46;72.84
21988;BME280;11158;53.404;-1.510;2023-07-24T02:27:12;99506.16;;;14.55;72.29
21988;BME280;11158;53.404;-1.510;2023-07-24T02:29:57;99498.09;;;15.02;71.04
21988;BME280;11158;53.404;-1.510;2023-07-24T02:32:42;99495.06;;;15.50;68.80
21988;BME280;11158;53.404;-1.510;2023-07-24T02:35:26;99488.59;;;15.35;69.52
21988;BME280;11158;53.404;-1.510;2023-07-24T02:38:10;99489.91;;;15.73;68.61
21988;BME280;11158;53.404;-1.510;2023-07-24T02:40:54;99487.06;;;15.67;68.98
21988;BME280;11158;53.404;-1.510;2023-07-24T02:43:39;99488.50;;;15.58;69.30
21988;BME280;11158;53.404;-1.510;2023-07-24T02:46:24;99492.09;;;15.76;68.96
21988;BME280;11158;53.404;-1.510;2023-07-24T02:49:08;99491.50;;;16.31;67.21
21988;BME280;11158;53.404;-1.510;2023-07-24T02:51:53;99489.13;;;16.68;65.94
21988;BME280;11158;53.404;-1.510;2023-07-24T02:54:37;99494.00;;;16.04;67.45
21988;BME280;11158;53.404;-1.510;2023-07-24T02:57:21;99488.22;;;16.46;66.60
21988;BME280;11158;53.404;-1.510;2023-07-24T03:00:06;99490.69;;;15.33;69.53
21988;BME280;11158;53.404;-1.510;2023-07-24T03:02:52;99485.34;;;14.85;71.76
21988;BME280;11158;53.404;-1.510;2023-07-24T03:05:36;99483.72;;;14.96;71.54
21988;BME280;11158;53.404;-1.510;2023-07-24T03:08:20;99491.53;;;15.74;69.63
21988;BME280;11158;53.404;-1.510;2023-07-24T03:11:05;99482.47;;;15.80;68.80
21988;BME280;11158;53.404;-1.510;2023-07-24T03:13:53;99484.53;;;15.61;69.75
21988;BME280;11158;53.404;-1.510;2023-07-24T03:16:37;99483.19;;;15.35;70.81
21988;BME280;11158;53.404;-1.510;2023-07-24T03:19:21;99489.13;;;15.89;69.09
21988;BME280;11158;53.404;-1.510;2023-07-24T03:22:06;99484.31;;;15.91;68.30
21988;BME280;11158;53.404;-1.510;2023-07-24T03:24:50;99483.88;;;15.82;68.84
21988;BME280;11158;53.404;-1.510;2023-07-24T03:27:35;99478.47;;;16.28;67.92
21988;BME280;11158;53.404;-1.510;2023-07-24T03:30:19;99478.41;;;16.23;66.75
21988;BME280;11158;53.404;-1.510;2023-07-24T03:33:04;99478.75;;;16.43;66.63
21988;BME280;11158;53.404;-1.510;2023-07-24T03:35:48;99480.59;;;16.09;67.92
21988;BME280;11158;53.404;-1.510;2023-07-24T03:38:32;99484.75;;;16.17;66.92
21988;BME280;11158;53.404;-1.510;2023-07-24T03:41:17;99488.03;;;15.61;69.90
21988;BME280;11158;53.404;-1.510;2023-07-24T03:44:01;99479.25;;;16.40;67.35
21988;BME280;11158;53.404;-1.510;2023-07-24T03:46:45;99490.66;;;15.85;69.19
21988;BME280;11158;53.404;-1.510;2023-07-24T03:49:29;99494.38;;;16.12;67.11
21988;BME280;11158;53.404;-1.510;2023-07-24T03:52:13;99488.84;;;15.62;69.11
21988;BME280;11158;53.404;-1.510;2023-07-24T03:54:57;99493.72;;;15.36;69.28
21988;BME280;11158;53.404;-1.510;2023-07-24T03:57:41;99497.78;;;15.50;69.44
21988;BME280;11158;53.404;-1.510;2023-07-24T04:00:25;99490.84;;;15.02;70.01
21988;BME280;11158;53.404;-1.510;2023-07-24T04:03:09;99491.28;;;15.35;69.48
21988;BME280;11158;53.404;-1.510;2023-07-24T04:05:54;99485.63;;;15.36;69.57
21988;BME280;11158;53.404;-1.510;2023-07-24T04:08:38;99504.03;;;15.39;70.04
21988;BME280;11158;53.404;-1.510;2023-07-24T04:11:22;99500.72;;;15.89;68.32
21988;BME280;11158;53.404;-1.510;2023-07-24T04:14:06;99504.81;;;15.52;69.28
21988;BME280;11158;53.404;-1.510;2023-07-24T04:16:50;99501.78;;;15.36;69.23
21988;BME280;11158;53.404;-1.510;2023-07-24T04:19:34;99504.75;;;15.11;69.24
21988;BME280;11158;53.404;-1.510;2023-07-24T04:22:18;99507.69;;;15.10;69.75
21988;BME280;11158;53.404;-1.510;2023-07-24T04:25:03;99514.69;;;15.22;69.28
21988;BME280;11158;53.404;-1.510;2023-07-24T04:27:47;99508.00;;;15.48;68.80
21988;BME280;11158;53.404;-1.510;2023-07-24T04:30:32;99516.00;;;15.20;69.13
21988;BME280;11158;53.404;-1.510;2023-07-24T04:33:17;99515.53;;;15.63;67.85
21988;BME280;11158;53.404;-1.510;2023-07-24T04:36:01;99518.00;;;15.77;67.10
21988;BME280;11158;53.404;-1.510;2023-07-24T04:38:45;99520.44;;;15.26;68.04
21988;BME280;11158;53.404;-1.510;2023-07-24T04:41:31;99516.31;;;15.35;68.73
21988;BME280;11158;53.404;-1.510;2023-07-24T04:44:14;99529.53;;;15.37;68.00
21988;BME280;11158;53.404;-1.510;2023-07-24T04:46:59;99529.94;;;15.17;69.87
21988;BME280;11158;53.404;-1.510;2023-07-24T04:49:43;99525.72;;;15.73;67.57
21988;BME280;11158;53.404;-1.510;2023-07-24T04:52:27;99531.47;;;15.65;68.01
21988;BME280;11158;53.404;-1.510;2023-07-24T04:55:11;99538.53;;;15.54;67.54
21988;BME280;11158;53.404;-1.510;2023-07-24T04:57:55;99527.66;;;15.25;67.84
21988;BME280;11158;53.404;-1.510;2023-07-24T05:00:39;99532.22;;;15.37;68.44
21988;BME280;11158;53.404;-1.510;2023-07-24T05:03:23;99544.88;;;15.36;68.07
21988;BME280;11158;53.404;-1.510;2023-07-24T05:06:07;99547.00;;;14.87;69.02
21988;BME280;11158;53.404;-1.510;2023-07-24T05:08:52;99541.03;;;14.97;68.89
21988;BME280;11158;53.404;-1.510;2023-07-24T05:11:37;99548.41;;;15.25;68.74
21988;BME280;11158;53.404;-1.510;2023-07-24T05:14:21;99551.31;;;15.35;68.44
21988;BME280;11158;53.404;-1.510;2023-07-24T05:17:05;99544.25;;;15.46;67.52
21988;BME280;11158;53.404;-1.510;2023-07-24T05:19:49;99550.50;;;15.35;67.67
21988;BME280;11158;53.404;-1.510;2023-07-24T05:22:33;99553.66;;;15.96;65.96
21988;BME280;11158;53.404;-1.510;2023-07-24T05:25:17;99554.22;;;15.45;67.64
21988;BME280;11158;53.404;-1.510;2023-07-24T05:28:01;99558.00;;;15.21;68.32
21988;BME280;11158;53.404;-1.510;2023-07-24T05:30:45;99562.72;;;15.66;66.44
21988;BME280;11158;53.404;-1.510;2023-07-24T05:33:30;99564.88;;;15.52;65.73
21988;BME280;11158;53.404;-1.510;2023-07-24T05:36:14;99557.38;;;15.54;66.40
21988;BME280;11158;53.404;-1.510;2023-07-24T05:38:58;99574.59;;;15.41;66.45
21988;BME280;11158;53.404;-1.510;2023-07-24T05:41:42;99567.53;;;15.87;65.63
21988;BME280;11158;53.404;-1.510;2023-07-24T05:44:26;99575.16;;;15.55;65.91
21988;BME280;11158;53.404;-1.510;2023-07-24T05:47:10;99566.91;;;15.33;66.28
21988;BME280;11158;53.404;-1.510;2023-07-24T05:49:54;99573.44;;;15.49;66.13
21988;BME280;11158;53.404;-1.510;2023-07-24T05:52:38;99572.91;;;15.87;64.52
21988;BME280;11158;53.404;-1.510;2023-07-24T05:55:23;99573.28;;;16.08;63.66
21988;BME280;11158;53.404;-1.510;2023-07-24T05:58:07;99574.03;;;15.27;66.04
21988;BME280;11158;53.404;-1.510;2023-07-24T06:00:51;99572.59;;;15.37;66.27
21988;BME280;11158;53.404;-1.510;2023-07-24T06:03:36;99575.28;;;15.72;64.64
21988;BME280;11158;53.404;-1.510;2023-07-24T06:06:23;99583.75;;;15.28;66.47
21988;BME280;11158;53.404;-1.510;2023-07-24T06:09:06;99587.03;;;15.42;65.19
21988;BME280;11158;53.404;-1.510;2023-07-24T06:11:50;99591.78;;;15.76;64.46
21988;BME280;11158;53.404;-1.510;2023-07-24T06:14:35;99591.47;;;15.48;64.59
21988;BME280;11158;53.404;-1.510;2023-07-24T06:17:19;99587.97;;;16.00;63.87
21988;BME280;11158;53.404;-1.510;2023-07-24T06:20:03;99598.09;;;15.93;64.14
21988;BME280;11158;53.404;-1.510;2023-07-24T06:22:47;99590.06;;;15.34;65.19
21988;BME280;11158;53.404;-1.510;2023-07-24T06:25:31;99601.44;;;16.00;63.36
21988;BME280;11158;53.404;-1.510;2023-07-24T06:28:16;99597.56;;;15.44;64.16
21988;BME280;11158;53.404;-1.510;2023-07-24T06:31:00;99594.47;;;15.64;64.30
21988;BME280;11158;53.404;-1.510;2023-07-24T06:33:44;99596.97;;;15.54;64.15
21988;BME280;11158;53.404;-1.510;2023-07-24T06:36:28;99601.41;;;15.72;63.73
21988;BME280;11158;53.404;-1.510;2023-07-24T06:39:12;99606.84;;;16.00;63.32
21988;BME280;11158;53.404;-1.510;2023-07-24T06:41:56;99604.63;;;15.97;61.95
21988;BME280;11158;53.404;-1.510;2023-07-24T06:44:41;99607.13;;;15.63;63.91
21988;BME280;11158;53.404;-1.510;2023-07-24T06:47:25;99614.06;;;16.11;62.38
21988;BME280;11158;53.404;-1.510;2023-07-24T06:50:09;99614.03;;;15.95;62.99
21988;BME280;11158;53.404;-1.510;2023-07-24T06:52:54;99612.38;;;15.94;62.27
21988;BME280;11158;53.404;-1.510;2023-07-24T06:55:38;99618.00;;;15.92;62.52
21988;BME280;11158;53.404;-1.510;2023-07-24T06:58:22;99618.63;;;15.35;63.89
21988;BME280;11158;53.404;-1.510;2023-07-24T07:01:06;99620.72;;;15.80;63.16
21988;BME280;11158;53.404;-1.510;2023-07-24T07:03:50;99620.59;;;15.63;62.46
21988;BME280;11158;53.404;-1.510;2023-07-24T07:06:34;99619.09;;;16.48;60.61
21988;BME280;11158;53.404;-1.510;2023-07-24T07:09:18;99620.91;;;16.02;61.40
21988;BME280;11158;53.404;-1.510;2023-07-24T07:12:03;99627.47;;;16.35;60.45
21988;BME280;11158;53.404;-1.510;2023-07-24T07:14:47;99627.03;;;16.55;60.23
21988;BME280;11158;53.404;-1.510;2023-07-24T07:17:31;99627.53;;;16.69;59.94
21988;BME280;11158;53.404;-1.510;2023-07-24T07:20:15;99630.97;;;16.64;60.16
21988;BME280;11158;53.404;-1.510;2023-07-24T07:23:00;99639.03;;;17.44;58.42
21988;BME280;11158;53.404;-1.510;2023-07-24T07:25:44;99638.34;;;16.69;59.39
21988;BME280;11158;53.404;-1.510;2023-07-24T07:28:31;99638.97;;;16.30;60.47
21988;BME280;11158;53.404;-1.510;2023-07-24T07:31:15;99643.81;;;17.36;57.71
21988;BME280;11158;53.404;-1.510;2023-07-24T07:33:59;99641.03;;;16.98;58.75
21988;BME280;11158;53.404;-1.510;2023-07-24T07:36:43;99649.69;;;17.33;58.10
21988;BME280;11158;53.404;-1.510;2023-07-24T07:39:28;99649.84;;;17.10;58.73
21988;BME280;11158;53.404;-1.510;2023-07-24T07:42:12;99650.59;;;16.60;60.16
21988;BME280;11158;53.404;-1.510;2023-07-24T07:44:56;99648.75;;;16.77;59.52
21988;BME280;11158;53.404;-1.510;2023-07-24T07:47:40;99638.03;;;17.50;57.14
21988;BME280;11158;53.404;-1.510;2023-07-24T07:50:25;99642.00;;;16.63;59.46
21988;BME280;11158;53.404;-1.510;2023-07-24T07:53:09;99648.97;;;16.59;59.96
21988;BME280;11158;53.404;-1.510;2023-07-24T07:55:57;99649.19;;;17.03;59.21
21988;BME280;11158;53.404;-1.510;2023-07-24T07:58:41;99639.16;;;17.54;57.82
21988;BME280;11158;53.404;-1.510;2023-07-24T08:01:25;99643.09;;;18.24;54.93
21988;BME280;11158;53.404;-1.510;2023-07-24T08:04:10;99641.00;;;17.31;57.55
21988;BME280;11158;53.404;-1.510;2023-07-24T08:06:54;99644.72;;;18.52;54.86
21988;BME280;11158;53.404;-1.510;2023-07-24T08:09:38;99645.72;;;18.95;52.66
21988;BME280;11158;53.404;-1.510;2023-07-24T08:12:22;99653.78;;;19.65;51.70
21988;BME280;11158;53.404;-1.510;2023-07-24T08:15:06;99654.53;;;19.13;52.55
21988;BME280;11158;53.404;-1.510;2023-07-24T08:17:51;99658.41;;;19.22;52.76
21988;BME280;11158;53.404;-1.510;2023-07-24T08:20:36;99660.59;;;19.25;52.13
21988;BME280;11158;53.404;-1.510;2023-07-24T08:23:20;99665.81;;;20.42;50.05
21988;BME280;11158;53.404;-1.510;2023-07-24T08:26:05;99666.19;;;20.77;48.87
21988;BME280;11158;53.404;-1.510;2023-07-24T08:28:50;99663.34;;;20.25;49.91
21988;BME280;11158;53.404;-1.510;2023-07-24T08:31:34;99669.38;;;20.48;49.10
21988;BME280;11158;53.404;-1.510;2023-07-24T08:34:18;99671.19;;;18.45;53.71
21988;BME280;11158;53.404;-1.510;2023-07-24T08:37:02;99670.25;;;19.16;52.30
21988;BME280;11158;53.404;-1.510;2023-07-24T08:39:46;99670.38;;;18.72;52.63
21988;BME280;11158;53.404;-1.510;2023-07-24T08:42:31;99683.31;;;18.65;52.81
21988;BME280;11158;53.404;-1.510;2023-07-24T08:45:15;99676.09;;;18.04;54.46
21988;BME280;11158;53.404;-1.510;2023-07-24T08:48:00;99673.69;;;18.30;53.86
21988;BME280;11158;53.404;-1.510;2023-07-24T08:50:45;99677.00;;;19.13;52.35
21988;BME280;11158;53.404;-1.510;2023-07-24T08:53:30;99681.72;;;18.96;52.68
21988;BME280;11158;53.404;-1.510;2023-07-24T08:56:16;99683.66;;;18.73;52.99
21988;BME280;11158;53.404;-1.510;2023-07-24T08:59:00;99681.53;;;19.40;51.12
21988;BME280;11158;53.404;-1.510;2023-07-24T09:01:44;99683.03;;;19.58;50.32
21988;BME280;11158;53.404;-1.510;2023-07-24T09:04:29;99678.88;;;19.82;50.21
21988;BME280;11158;53.404;-1.510;2023-07-24T09:07:13;99679.22;;;20.64;48.34
21988;BME280;11158;53.404;-1.510;2023-07-24T09:09:57;99683.00;;;20.63;48.89
21988;BME280;11158;53.404;-1.510;2023-07-24T09:12:42;99676.00;;;20.93;47.58
21988;BME280;11158;53.404;-1.510;2023-07-24T09:15:26;99680.19;;;20.27;48.86
21988;BME280;11158;53.404;-1.510;2023-07-24T09:18:11;99676.94;;;20.36;49.85
21988;BME280;11158;53.404;-1.510;2023-07-24T09:20:55;99675.97;;;20.67;48.21
21988;BME280;11158;53.404;-1.510;2023-07-24T09:23:39;99671.94;;;21.11;47.79
21988;BME280;11158;53.404;-1.510;2023-07-24T09:26:27;99685.16;;;19.13;51.17
21988;BME280;11158;53.404;-1.510;2023-07-24T09:29:11;99676.00;;;20.04;48.60
21988;BME280;11158;53.404;-1.510;2023-07-24T09:31:55;99683.78;;;19.11;51.11
21988;BME280;11158;53.404;-1.510;2023-07-24T09:34:43;99688.06;;;18.57;50.88
21988;BME280;11158;53.404;-1.510;2023-07-24T09:40:14;99691.16;;;19.58;48.62
21988;BME280;11158;53.404;-1.510;2023-07-24T09:42:59;99691.50;;;19.66;49.20
21988;BME280;11158;53.404;-1.510;2023-07-24T09:45:43;99695.78;;;18.43;51.01
21988;BME280;11158;53.404;-1.510;2023-07-24T09:48:28;99695.91;;;19.73;49.42
21988;BME280;11158;53.404;-1.510;2023-07-24T09:51:12;99700.78;;;19.71;47.09
21988;BME280;11158;53.404;-1.510;2023-07-24T09:54:09;99690.47;;;20.20;47.11
21988;BME280;11158;53.404;-1.510;2023-07-24T09:56:59;99690.66;;;19.61;48.33
21988;BME280;11158;53.404;-1.510;2023-07-24T09:59:44;99697.75;;;21.13;45.47
21988;BME280;11158;53.404;-1.510;2023-07-24T10:02:29;99694.50;;;21.22;45.00
21988;BME280;11158;53.404;-1.510;2023-07-24T10:05:14;99695.00;;;20.88;45.34
21988;BME280;11158;53.404;-1.510;2023-07-24T10:07:59;99692.81;;;20.80;45.12
21988;BME280;11158;53.404;-1.510;2023-07-24T10:10:45;99688.44;;;20.58;46.69
21988;BME280;11158;53.404;-1.510;2023-07-24T10:13:29;99688.19;;;19.59;48.97
21988;BME280;11158;53.404;-1.510;2023-07-24T10:16:14;99684.44;;;21.12;46.10
21988;BME280;11158;53.404;-1.510;2023-07-24T10:18:58;99692.59;;;21.27;45.62
21988;BME280;11158;53.404;-1.510;2023-07-24T10:21:47;99677.56;;;21.86;44.21
21988;BME280;11158;53.404;-1.510;2023-07-24T10:24:33;99688.50;;;20.94;45.63
21988;BME280;11158;53.404;-1.510;2023-07-24T10:27:23;99687.66;;;20.78;46.44
21988;BME280;11158;53.404;-1.510;2023-07-24T10:30:07;99688.53;;;21.35;44.37
21988;BME280;11158;53.404;-1.510;2023-07-24T10:32:52;99693.75;;;20.33;47.68
21988;BME280;11158;53.404;-1.510;2023-07-24T10:35:47;99693.22;;;19.40;49.52
21988;BME280;11158;53.404;-1.510;2023-07-24T10:38:34;99698.69;;;20.46;47.57
21988;BME280;11158;53.404;-1.510;2023-07-24T10:41:18;99690.13;;;20.95;45.87
21988;BME280;11158;53.404;-1.510;2023-07-24T10:44:03;99692.06;;;21.46;44.47
21988;BME280;11158;53.404;-1.510;2023-07-24T10:46:47;99688.09;;;22.13;43.42
21988;BME280;11158;53.404;-1.510;2023-07-24T10:49:31;99703.03;;;19.89;47.48
21988;BME280;11158;53.404;-1.510;2023-07-24T10:52:15;99700.31;;;20.52;45.69
21988;BME280;11158;53.404;-1.510;2023-07-24T10:55:03;99700.88;;;20.49;45.18
21988;BME280;11158;53.404;-1.510;2023-07-24T10:57:47;99711.34;;;21.13;43.89
21988;BME280;11158;53.404;-1.510;2023-07-24T11:00:31;99714.56;;;20.95;44.12
21988;BME280;11158;53.404;-1.510;2023-07-24T11:03:16;99715.72;;;21.56;44.05
21988;BME280;11158;53.404;-1.510;2023-07-24T11:06:02;99720.03;;;21.31;43.51
21988;BME280;11158;53.404;-1.510;2023-07-24T11:08:54;99711.72;;;20.44;46.03
21988;BME280;11158;53.404;-1.510;2023-07-24T11:11:40;99714.53;;;20.80;44.64
21988;BME280;11158;53.404;-1.510;2023-07-24T11:14:25;99722.22;;;21.70;43.77
21988;BME280;11158;53.404;-1.510;2023-07-24T11:17:09;99723.28;;;21.84;43.54
21988;BME280;11158;53.404;-1.510;2023-07-24T11:19:53;99724.38;;;21.37;44.80
21988;BME280;11158;53.404;-1.510;2023-07-24T11:22:38;99724.69;;;21.41;43.19
21988;BME280;11158;53.404;-1.510;2023-07-24T11:25:23;99735.28;;;21.47;43.02
21988;BME280;11158;53.404;-1.510;2023-07-24T11:28:10;99723.06;;;21.50;42.21
21988;BME280;11158;53.404;-1.510;2023-07-24T11:30:54;99729.03;;;21.57;42.70
21988;BME280;11158;53.404;-1.510;2023-07-24T11:33:39;99727.19;;;22.48;41.73
21988;BME280;11158;53.404;-1.510;2023-07-24T11:36:23;99720.13;;;22.92;40.92
21988;BME280;11158;53.404;-1.510;2023-07-24T11:39:08;99731.53;;;22.49;41.14
21988;BME280;11158;53.404;-1.510;2023-07-24T11:41:52;99730.84;;;22.03;42.21
21988;BME280;11158;53.404;-1.510;2023-07-24T11:44:36;99738.22;;;21.87;42.76
21988;BME280;11158;53.404;-1.510;2023-07-24T11:47:20;99735.81;;;21.75;42.26
21988;BME280;11158;53.404;-1.510;2023-07-24T11:50:05;99737.38;;;21.96;41.93
21988;BME280;11158;53.404;-1.510;2023-07-24T11:52:51;99737.16;;;22.68;40.14
21988;BME280;11158;53.404;-1.510;2023-07-24T11:55:35;99733.06;;;21.90;41.19
21988;BME280;11158;53.404;-1.510;2023-07-24T11:58:21;99738.78;;;21.27;41.70
21988;BME280;11158;53.404;-1.510;2023-07-24T12:01:05;99729.47;;;22.15;40.85
21988;BME280;11158;53.404;-1.510;2023-07-24T12:03:49;99729.66;;;22.40;40.54
21988;BME280;11158;53.404;-1.510;2023-07-24T12:06:33;99736.75;;;22.90;39.61
21988;BME280;11158;53.404;-1.510;2023-07-24T12:09:17;99735.19;;;22.09;40.11
21988;BME280;11158;53.404;-1.510;2023-07-24T12:12:03;99731.19;;;23.50;38.88
21988;BME280;11158;53.404;-1.510;2023-07-24T12:14:48;99736.50;;;23.31;38.10
21988;BME280;11158;53.404;-1.510;2023-07-24T12:17:32;99725.88;;;22.85;38.68
21988;BME280;11158;53.404;-1.510;2023-07-24T12:20:17;99731.75;;;22.63;39.38
21988;BME280;11158;53.404;-1.510;2023-07-24T12:23:01;99724.63;;;23.17;39.37
21988;BME280;11158;53.404;-1.510;2023-07-24T12:25:45;99719.91;;;23.23;38.53
21988;BME280;11158;53.404;-1.510;2023-07-24T12:28:29;99720.75;;;23.23;37.86
21988;BME280;11158;53.404;-1.510;2023-07-24T12:31:14;99734.53;;;22.48;39.28
21988;BME280;11158;53.404;-1.510;2023-07-24T12:33:58;99728.56;;;22.90;39.39
21988;BME280;11158;53.404;-1.510;2023-07-24T12:36:42;99740.00;;;22.43;39.19
21988;BME280;11158;53.404;-1.510;2023-07-24T12:39:27;99735.53;;;21.36;40.38
21988;BME280;11158;53.404;-1.510;2023-07-24T12:42:11;99722.78;;;21.41;39.40
21988;BME280;11158;53.404;-1.510;2023-07-24T12:44:56;99724.72;;;23.41;37.58
21988;BME280;11158;53.404;-1.510;2023-07-24T12:47:42;99731.84;;;22.43;38.40
21988;BME280;11158;53.404;-1.510;2023-07-24T12:50:26;99733.00;;;22.16;40.44
21988;BME280;11158;53.404;-1.510;2023-07-24T12:53:10;99745.59;;;21.66;41.05
21988;BME280;11158;53.404;-1.510;2023-07-24T12:55:54;99746.72;;;21.44;41.00
21988;BME280;11158;53.404;-1.510;2023-07-24T12:58:38;99743.66;;;21.87;41.00
21988;BME280;11158;53.404;-1.510;2023-07-24T13:01:22;99746.63;;;22.06;40.79
21988;BME280;11158;53.404;-1.510;2023-07-24T13:04:08;99742.63;;;21.67;41.31
21988;BME280;11158;53.404;-1.510;2023-07-24T13:06:52;99752.91;;;21.14;42.02
21988;BME280;11158;53.404;-1.510;2023-07-24T13:09:36;99742.69;;;20.48;43.52
21988;BME280;11158;53.404;-1.510;2023-07-24T13:12:21;99743.94;;;21.13;42.43
21988;BME280;11158;53.404;-1.510;2023-07-24T13:15:05;99737.06;;;22.24;40.13
21988;BME280;11158;53.404;-1.510;2023-07-24T13:17:50;99741.53;;;21.38;39.32
21988;BME280;11158;53.404;-1.510;2023-07-24T13:20:34;99742.63;;;22.68;38.51
21988;BME280;11158;53.404;-1.510;2023-07-24T13:23:18;99735.50;;;21.92;38.90
21988;BME280;11158;53.404;-1.510;2023-07-24T13:26:03;99729.63;;;22.99;37.56
21988;BME280;11158;53.404;-1.510;2023-07-24T13:28:47;99731.94;;;22.22;38.95
21988;BME280;11158;53.404;-1.510;2023-07-24T13:31:32;99734.19;;;21.64;39.75
21988;BME280;11158;53.404;-1.510;2023-07-24T13:34:17;99722.50;;;21.43;40.28
21988;BME280;11158;53.404;-1.510;2023-07-24T13:37:03;99725.97;;;22.00;39.69
21988;BME280;11158;53.404;-1.510;2023-07-24T13:39:48;99715.09;;;23.14;37.52
21988;BME280;11158;53.404;-1.510;2023-07-24T13:42:32;99714.44;;;23.57;35.86
21988;BME280;11158;53.404;-1.510;2023-07-24T13:45:16;99722.81;;;22.97;36.87
21988;BME280;11158;53.404;-1.510;2023-07-24T13:48:01;99735.56;;;21.61;40.43
21988;BME280;11158;53.404;-1.510;2023-07-24T13:50:46;99742.91;;;21.45;42.01
21988;BME280;11158;53.404;-1.510;2023-07-24T13:53:31;99741.25;;;21.75;39.32
21988;BME280;11158;53.404;-1.510;2023-07-24T13:56:15;99742.88;;;21.20;40.08
21988;BME280;11158;53.404;-1.510;2023-07-24T13:58:59;99748.31;;;21.15;41.62
21988;BME280;11158;53.404;-1.510;2023-07-24T14:01:44;99739.50;;;22.30;39.36
21988;BME280;11158;53.404;-1.510;2023-07-24T14:04:28;99739.25;;;22.11;38.96
21988;BME280;11158;53.404;-1.510;2023-07-24T14:07:13;99727.44;;;23.07;37.73
21988;BME280;11158;53.404;-1.510;2023-07-24T14:09:57;99727.28;;;22.83;37.23
21988;BME280;11158;53.404;-1.510;2023-07-24T14:12:41;99737.50;;;23.75;36.48
21988;BME280;11158;53.404;-1.510;2023-07-24T14:15:26;99734.56;;;23.32;36.24
21988;BME280;11158;53.404;-1.510;2023-07-24T14:18:10;99730.22;;;23.65;36.23
21988;BME280;11158;53.404;-1.510;2023-07-24T14:20:55;99731.97;;;23.85;35.85
21988;BME280;11158;53.404;-1.510;2023-07-24T14:23:40;99726.44;;;24.81;34.52
21988;BME280;11158;53.404;-1.510;2023-07-24T14:26:24;99725.06;;;24.17;34.69